Time;durP1;ratioP1;P1;durP2;ratioP2;P2;SDS_P1;SDS_P2;PMS_P1;PMS_P2;Temp;Humidity;BMP_temperature;BMP_pressure;BME280_temperature;BME280_humidity;BME280_pressure;Samples;Min_cycle;Max_cycle;Signal;HPM_P1;HPM_P2
2022/04/04 00:00:05;;;;;;;;;;;11.20;83.50;;;;;;5152458;27;20307;-74
2022/04/04 00:02:31;;;;;;;;;;;11.20;84.10;;;;;;5152631;27;19907;-74
2022/04/04 00:04:56;;;;;;;;;;;11.30;83.80;;;;;;5133711;27;19915;-74
2022/04/04 00:07:22;;;;;;;;;;;11.30;84.10;;;;;;5152056;27;20321;-74
2022/04/04 00:09:47;;;;;;;;;;;11.30;84.00;;;;;;5133591;27;19911;-75
2022/04/04 00:12:13;;;;;;;;;;;11.40;84.00;;;;;;5152101;27;19915;-74
2022/04/04 00:14:38;;;;;;;;;;;11.40;84.40;;;;;;5151987;27;19911;-75
2022/04/04 00:17:04;;;;;;;;;;;11.40;84.30;;;;;;5151965;27;20396;-74
2022/04/04 00:19:30;;;;;;;;;;;11.40;84.90;;;;;;5151996;27;19919;-74
2022/04/04 00:21:56;;;;;;;;;;;11.40;85.10;;;;;;5151908;27;19915;-74
2022/04/04 00:24:22;;;;;;;;;;;11.40;85.50;;;;;;5151862;27;19986;-74
2022/04/04 00:26:48;;;;;;;;;;;11.40;85.60;;;;;;5151791;27;20352;-75
2022/04/04 00:29:13;;;;;;;;;;;11.40;86.00;;;;;;5151865;27;19914;-74
2022/04/04 00:31:39;;;;;;;;;;;11.40;86.20;;;;;;5151345;27;19919;-74
2022/04/04 00:34:04;;;;;;;;;;;11.40;86.30;;;;;;5151778;27;19951;-74
2022/04/04 00:36:30;;;;;;;;;;;11.50;86.30;;;;;;5151523;27;19911;-74
2022/04/04 00:38:56;;;;;;;;;;;11.50;86.70;;;;;;5151506;27;20360;-75
2022/04/04 00:41:21;;;;;;;;;;;11.50;87.20;;;;;;5151543;27;20396;-74
2022/04/04 00:43:50;;;;;;;;;;;11.50;87.30;;;;;;5151383;27;20284;-74
2022/04/04 00:46:16;;;;;;;;;;;11.50;87.50;;;;;;5150479;27;20027;-74
2022/04/04 00:48:41;;;;;;;;;;;11.50;87.50;;;;;;5151257;27;19964;-74
2022/04/04 00:51:07;;;;;;;;;;;11.60;87.90;;;;;;5151289;27;19956;-74
2022/04/04 00:53:32;;;;;;;;;;;11.60;88.10;;;;;;5151195;27;20409;-75
2022/04/04 00:55:58;;;;;;;;;;;11.60;88.40;;;;;;5151225;27;19914;-74
2022/04/04 00:58:24;;;;;;;;;;;11.60;88.50;;;;;;5151183;27;19953;-74
2022/04/04 01:00:50;;;;;;;;;;;11.70;88.70;;;;;;5151206;27;20051;-74
2022/04/04 01:03:16;;;;;;;;;;;11.70;88.70;;;;;;5151022;27;20365;-75
2022/04/04 01:05:44;;;;;;;;;;;11.70;89.00;;;;;;5150899;27;20384;-75
2022/04/04 01:08:16;;;;;;;;;;;11.80;89.20;;;;;;5150985;27;20427;-74
2022/04/04 01:10:42;;;;;;;;;;;11.80;89.40;;;;;;5151016;27;19911;-74
2022/04/04 01:13:09;;;;;;;;;;;11.80;89.40;;;;;;5151052;27;19918;-74
2022/04/04 01:15:35;;;;;;;;;;;11.90;89.60;;;;;;5150786;27;19907;-75
2022/04/04 01:18:01;;;;;;;;;;;11.90;89.60;;;;;;5150839;27;20376;-74
2022/04/04 01:20:27;;;;;;;;;;;11.90;89.80;;;;;;5150880;27;19994;-74
2022/04/04 01:22:52;;;;;;;;;;;11.90;90.00;;;;;;5150736;27;20395;-74
2022/04/04 01:25:25;;;;;;;;;;;11.90;90.10;;;;;;5150572;27;20271;-74
2022/04/04 01:27:51;;;;;;;;;;;11.90;90.10;;;;;;5150517;27;20364;-74
2022/04/04 01:30:16;;;;;;;;;;;11.90;90.30;;;;;;5150548;27;19921;-75
2022/04/04 01:32:42;;;;;;;;;;;11.90;90.20;;;;;;5150515;27;19923;-75
2022/04/04 01:35:09;;;;;;;;;;;12.00;90.30;;;;;;5150380;27;19923;-74
2022/04/04 01:37:35;;;;;;;;;;;11.90;90.40;;;;;;5150363;27;20279;-75
2022/04/04 01:40:01;;;;;;;;;;;11.90;90.40;;;;;;5150370;27;19990;-74
2022/04/04 01:42:26;;;;;;;;;;;12.00;90.60;;;;;;5150383;27;20006;-74
2022/04/04 01:44:52;;;;;;;;;;;12.00;90.70;;;;;;5150217;27;19945;-75
2022/04/04 01:47:17;;;;;;;;;;;12.00;90.80;;;;;;5131497;27;19911;-74
2022/04/04 01:49:43;;;;;;;;;;;12.00;91.10;;;;;;5150139;27;19919;-74
2022/04/04 01:52:09;;;;;;;;;;;12.00;91.00;;;;;;5150032;27;20288;-74
2022/04/04 01:54:34;;;;;;;;;;;12.00;91.00;;;;;;5131868;27;19910;-74
2022/04/04 01:57:00;;;;;;;;;;;12.10;91.10;;;;;;5149422;27;20005;-74
2022/04/04 01:59:25;;;;;;;;;;;12.00;91.10;;;;;;5150118;27;19907;-74
2022/04/04 02:01:51;;;;;;;;;;;12.10;91.20;;;;;;5150086;27;20048;-74
2022/04/04 02:04:16;;;;;;;;;;;12.10;91.20;;;;;;5149831;27;19985;-75
2022/04/04 02:06:43;;;;;;;;;;;12.10;91.20;;;;;;5149808;27;19953;-75
2022/04/04 02:09:09;;;;;;;;;;;12.10;91.30;;;;;;5149943;27;20365;-75
2022/04/04 02:11:34;;;;;;;;;;;12.10;91.30;;;;;;5149885;27;19990;-74
2022/04/04 02:14:02;;;;;;;;;;;12.10;91.40;;;;;;5149819;27;19997;-72
2022/04/04 02:16:28;;;;;;;;;;;12.10;91.40;;;;;;5149749;27;19907;-72
2022/04/04 02:18:53;;;;;;;;;;;12.20;91.60;;;;;;5149748;27;19993;-75
2022/04/04 02:21:19;;;;;;;;;;;12.20;91.60;;;;;;5149763;27;19911;-72
2022/04/04 02:23:45;;;;;;;;;;;12.20;91.70;;;;;;5149693;27;20006;-73
2022/04/04 02:26:11;;;;;;;;;;;12.20;91.70;;;;;;5149592;27;19915;-73
2022/04/04 02:28:36;;;;;;;;;;;12.20;91.80;;;;;;5149689;27;19911;-73
2022/04/04 02:31:02;;;;;;;;;;;12.20;91.80;;;;;;5149405;27;19919;-73
2022/04/04 02:33:27;;;;;;;;;;;12.20;91.90;;;;;;5149549;27;19915;-73
2022/04/04 02:35:53;;;;;;;;;;;12.20;92.00;;;;;;5149252;27;19911;-73
2022/04/04 02:38:20;;;;;;;;;;;12.20;92.00;;;;;;5149787;27;19960;-73
2022/04/04 02:40:46;;;;;;;;;;;12.10;92.00;;;;;;5149564;27;20421;-73
2022/04/04 02:43:12;;;;;;;;;;;12.10;92.10;;;;;;5149282;27;19915;-73
2022/04/04 02:45:37;;;;;;;;;;;12.10;92.20;;;;;;5149313;27;19964;-73
2022/04/04 02:48:03;;;;;;;;;;;12.10;92.20;;;;;;5149449;27;19915;-73
2022/04/04 02:50:29;;;;;;;;;;;12.10;92.40;;;;;;5149452;27;19919;-73
2022/04/04 02:52:54;;;;;;;;;;;12.10;92.40;;;;;;5149440;27;19911;-73
2022/04/04 02:58:05;;;;;;;;;;;12.10;92.70;;;;;;5149697;27;20496;-73
2022/04/04 03:00:31;;;;;;;;;;;12.00;92.80;;;;;;5149297;27;19973;-73
2022/04/04 03:02:56;;;;;;;;;;;12.00;92.90;;;;;;5149354;27;19952;-72
2022/04/04 03:05:22;;;;;;;;;;;12.00;93.00;;;;;;5149271;27;20339;-73
2022/04/04 03:07:48;;;;;;;;;;;12.00;93.10;;;;;;5130743;27;19961;-72
2022/04/04 03:10:15;;;;;;;;;;;12.00;93.20;;;;;;5152694;27;19915;-73
2022/04/04 03:12:41;;;;;;;;;;;11.90;93.30;;;;;;5153279;27;19907;-73
2022/04/04 03:15:08;;;;;;;;;;;11.90;93.30;;;;;;5134692;27;20376;-73
2022/04/04 03:17:34;;;;;;;;;;;11.90;93.40;;;;;;5153328;27;19951;-73
2022/04/04 03:20:00;;;;;;;;;;;12.00;93.50;;;;;;5153199;27;19907;-73
2022/04/04 03:22:26;;;;;;;;;;;12.00;93.50;;;;;;5153251;27;19923;-73
2022/04/04 03:24:52;;;;;;;;;;;12.00;93.60;;;;;;5153070;27;19907;-73
2022/04/04 03:27:18;;;;;;;;;;;12.00;93.60;;;;;;5134471;27;19916;-73
2022/04/04 03:29:44;;;;;;;;;;;12.00;93.60;;;;;;5152947;27;20253;-73
2022/04/04 03:32:10;;;;;;;;;;;12.00;93.70;;;;;;5152879;27;19919;-72
2022/04/04 03:34:36;;;;;;;;;;;12.00;93.80;;;;;;5134347;27;19912;-73
2022/04/04 03:37:02;;;;;;;;;;;12.00;93.80;;;;;;5152722;27;19941;-73
2022/04/04 03:39:27;;;;;;;;;;;12.00;93.80;;;;;;5152791;27;19907;-73
2022/04/04 03:41:54;;;;;;;;;;;12.00;93.80;;;;;;5152647;27;19964;-73
2022/04/04 03:44:19;;;;;;;;;;;12.10;93.90;;;;;;5152652;27;20008;-73
2022/04/04 03:46:45;;;;;;;;;;;12.10;93.90;;;;;;5152418;27;20365;-73
2022/04/04 03:49:10;;;;;;;;;;;12.00;93.90;;;;;;5152574;27;19957;-73
2022/04/04 03:51:36;;;;;;;;;;;12.10;93.90;;;;;;5152437;27;20006;-73
2022/04/04 03:54:02;;;;;;;;;;;12.10;94.00;;;;;;5152295;27;19978;-72
2022/04/04 03:56:28;;;;;;;;;;;12.10;93.90;;;;;;5152053;27;20302;-72
2022/04/04 03:58:54;;;;;;;;;;;12.10;93.90;;;;;;5152144;27;20055;-73
2022/04/04 04:01:20;;;;;;;;;;;12.10;93.90;;;;;;5152303;27;19914;-73
2022/04/04 04:03:46;;;;;;;;;;;12.10;93.80;;;;;;5152103;27;19915;-73
2022/04/04 04:06:11;;;;;;;;;;;12.10;93.90;;;;;;5152073;27;19918;-73
2022/04/04 04:08:46;;;;;;;;;;;12.10;93.80;;;;;;5152169;27;19922;-73
2022/04/04 04:11:13;;;;;;;;;;;12.10;93.90;;;;;;5133560;27;19947;-73
2022/04/04 04:13:41;;;;;;;;;;;12.10;93.90;;;;;;5152136;27;20303;-73
2022/04/04 04:16:09;;;;;;;;;;;12.10;93.90;;;;;;5152142;27;19907;-73
2022/04/04 04:18:38;;;;;;;;;;;12.10;94.00;;;;;;5151972;27;19960;-73
2022/04/04 04:21:04;;;;;;;;;;;12.10;94.00;;;;;;5151825;27;19952;-73
2022/04/04 04:23:30;;;;;;;;;;;12.10;94.10;;;;;;5151827;27;19968;-73
2022/04/04 04:25:55;;;;;;;;;;;12.10;94.20;;;;;;5151632;27;19911;-73
2022/04/04 04:28:21;;;;;;;;;;;12.10;94.30;;;;;;5152041;27;19993;-74
2022/04/04 04:30:47;;;;;;;;;;;12.10;94.40;;;;;;5151552;27;20353;-74
2022/04/04 04:33:12;;;;;;;;;;;12.10;94.60;;;;;;5151726;27;19984;-73
2022/04/04 04:35:38;;;;;;;;;;;12.10;94.40;;;;;;5151481;27;20403;-73
2022/04/04 04:38:04;;;;;;;;;;;12.10;94.50;;;;;;5151572;27;20292;-73
2022/04/04 04:40:30;;;;;;;;;;;12.10;94.50;;;;;;5151406;27;19907;-73
2022/04/04 04:42:56;;;;;;;;;;;12.10;94.60;;;;;;5151410;27;20295;-73
2022/04/04 04:45:21;;;;;;;;;;;12.10;94.60;;;;;;5151412;27;20396;-74
2022/04/04 04:47:48;;;;;;;;;;;12.10;94.60;;;;;;5151369;27;19915;-73
2022/04/04 04:50:15;;;;;;;;;;;12.10;94.70;;;;;;5151219;27;20424;-73
2022/04/04 04:52:41;;;;;;;;;;;12.10;94.80;;;;;;5151353;27;20420;-73
2022/04/04 04:55:07;;;;;;;;;;;12.10;94.80;;;;;;5151118;27;20322;-73
2022/04/04 04:57:33;;;;;;;;;;;12.10;94.80;;;;;;5151130;27;19938;-73
2022/04/04 04:59:59;;;;;;;;;;;12.10;94.80;;;;;;5151275;27;20392;-73
2022/04/04 05:02:25;;;;;;;;;;;12.10;94.80;;;;;;5151112;27;19915;-73
2022/04/04 05:04:50;;;;;;;;;;;12.10;94.80;;;;;;5132468;27;19911;-73
2022/04/04 05:07:16;;;;;;;;;;;12.10;94.80;;;;;;5132313;27;19962;-73
2022/04/04 05:09:41;;;;;;;;;;;12.10;94.80;;;;;;5132354;27;20373;-73
2022/04/04 05:12:07;;;;;;;;;;;12.10;94.90;;;;;;5151078;27;19956;-73
2022/04/04 05:14:33;;;;;;;;;;;12.10;94.80;;;;;;5150951;27;19919;-73
2022/04/04 05:16:58;;;;;;;;;;;12.10;94.80;;;;;;5150729;27;19918;-74
2022/04/04 05:19:24;;;;;;;;;;;12.10;94.90;;;;;;5150867;27;19934;-73
2022/04/04 05:21:51;;;;;;;;;;;12.10;94.90;;;;;;5150767;27;20022;-73
2022/04/04 05:24:17;;;;;;;;;;;12.10;95.00;;;;;;5150585;27;19938;-73
2022/04/04 05:26:43;;;;;;;;;;;12.10;95.00;;;;;;5150434;27;19962;-73
2022/04/04 05:29:08;;;;;;;;;;;12.10;95.20;;;;;;5150451;27;20314;-73
2022/04/04 05:31:35;;;;;;;;;;;12.10;95.20;;;;;;5127504;27;20209;-73
2022/04/04 05:34:03;;;;;;;;;;;12.00;95.30;;;;;;5129858;27;19911;-73
2022/04/04 05:36:28;;;;;;;;;;;12.10;95.40;;;;;;5129737;27;19931;-73
2022/04/04 05:38:54;;;;;;;;;;;12.00;95.30;;;;;;5129589;27;20362;-73
2022/04/04 05:41:20;;;;;;;;;;;12.00;95.50;;;;;;5129547;27;19907;-73
2022/04/04 05:43:47;;;;;;;;;;;12.00;95.50;;;;;;5129643;27;19914;-73
2022/04/04 05:46:16;;;;;;;;;;;12.00;95.50;;;;;;5128229;27;20014;-73
2022/04/04 05:48:41;;;;;;;;;;;12.00;95.50;;;;;;5129527;27;19918;-73
2022/04/04 05:51:08;;;;;;;;;;;12.00;95.50;;;;;;5129404;27;19907;-73
2022/04/04 05:53:34;;;;;;;;;;;12.00;95.60;;;;;;5129114;27;19915;-73
2022/04/04 05:56:00;;;;;;;;;;;12.00;95.60;;;;;;5129291;27;19954;-73
2022/04/04 05:58:25;;;;;;;;;;;12.00;95.70;;;;;;5128991;27;20011;-73
2022/04/04 06:00:51;;;;;;;;;;;12.00;95.80;;;;;;5129178;27;19907;-73
2022/04/04 06:03:18;;;;;;;;;;;12.00;95.80;;;;;;5129332;27;19989;-73
2022/04/04 06:05:45;;;;;;;;;;;12.00;95.90;;;;;;5129142;27;19911;-73
2022/04/04 06:08:10;;;;;;;;;;;12.00;96.00;;;;;;5128985;27;20090;-73
2022/04/04 06:10:36;;;;;;;;;;;12.00;96.00;;;;;;5128875;27;20310;-73
2022/04/04 06:13:01;;;;;;;;;;;12.00;96.10;;;;;;5128963;27;19911;-73
2022/04/04 06:15:27;;;;;;;;;;;12.00;96.10;;;;;;5128973;27;19907;-73
2022/04/04 06:17:53;;;;;;;;;;;12.00;96.20;;;;;;5127625;27;19920;-73
2022/04/04 06:20:19;;;;;;;;;;;12.00;96.20;;;;;;5129164;27;20403;-73
2022/04/04 06:22:45;;;;;;;;;;;12.00;96.30;;;;;;5128983;27;19911;-73
2022/04/04 06:25:14;;;;;;;;;;;12.00;96.30;;;;;;5128810;27;19915;-73
2022/04/04 06:27:41;;;;;;;;;;;12.10;96.30;;;;;;5128421;27;19916;-74
2022/04/04 06:30:07;;;;;;;;;;;12.10;96.30;;;;;;5128862;27;19998;-73
2022/04/04 06:32:33;;;;;;;;;;;12.10;96.30;;;;;;5144428;27;19927;-73
2022/04/04 06:34:59;;;;;;;;;;;12.10;96.30;;;;;;5149155;27;19908;-74
2022/04/04 06:37:24;;;;;;;;;;;12.10;96.30;;;;;;5129647;27;20312;-73
2022/04/04 06:39:50;;;;;;;;;;;12.10;96.40;;;;;;5149447;27;20280;-73
2022/04/04 06:42:15;;;;;;;;;;;12.20;96.40;;;;;;5149276;27;19915;-73
2022/04/04 06:44:42;;;;;;;;;;;12.20;96.40;;;;;;5151962;27;19956;-73
2022/04/04 06:47:08;;;;;;;;;;;12.20;96.30;;;;;;5153608;27;20377;-73
2022/04/04 06:49:34;;;;;;;;;;;12.20;96.40;;;;;;5134765;27;19911;-73
2022/04/04 06:52:00;;;;;;;;;;;12.20;96.40;;;;;;5153338;27;19976;-73
2022/04/04 06:54:27;;;;;;;;;;;12.20;96.40;;;;;;5153166;27;20364;-73
2022/04/04 06:56:53;;;;;;;;;;;12.20;96.40;;;;;;5153370;27;19919;-73
2022/04/04 06:59:19;;;;;;;;;;;12.20;96.40;;;;;;5152807;27;20298;-73
2022/04/04 07:01:46;;;;;;;;;;;12.30;96.40;;;;;;5153242;27;20168;-73
2022/04/04 07:04:12;;;;;;;;;;;12.30;96.40;;;;;;5153087;27;20384;-73
2022/04/04 07:06:38;;;;;;;;;;;12.30;96.40;;;;;;5152587;27;19919;-74
2022/04/04 07:09:04;;;;;;;;;;;12.30;96.50;;;;;;5152835;27;20006;-74
2022/04/04 07:11:29;;;;;;;;;;;12.40;96.40;;;;;;5152598;27;20006;-73
2022/04/04 07:13:55;;;;;;;;;;;12.40;96.50;;;;;;5153111;27;19921;-73
2022/04/04 07:16:21;;;;;;;;;;;12.40;96.50;;;;;;5152885;27;20518;-73
2022/04/04 07:18:48;;;;;;;;;;;12.50;96.40;;;;;;5152661;27;19922;-73
2022/04/04 07:21:15;;;;;;;;;;;12.50;96.40;;;;;;5152622;27;20291;-73
2022/04/04 07:23:40;;;;;;;;;;;12.50;96.50;;;;;;5134131;27;20365;-73
2022/04/04 07:26:06;;;;;;;;;;;12.50;96.40;;;;;;5152311;27;20017;-73
2022/04/04 07:28:32;;;;;;;;;;;12.50;96.40;;;;;;5152390;27;19950;-73
2022/04/04 07:30:58;;;;;;;;;;;12.50;96.40;;;;;;5151192;27;20349;-73
2022/04/04 07:33:23;;;;;;;;;;;12.60;96.50;;;;;;5152058;27;20285;-73
2022/04/04 07:35:49;;;;;;;;;;;12.60;96.50;;;;;;5152411;27;19958;-73
2022/04/04 07:38:16;;;;;;;;;;;12.60;96.50;;;;;;5152685;27;19917;-71
2022/04/04 07:40:42;;;;;;;;;;;12.60;96.50;;;;;;5151803;27;20339;-73
2022/04/04 07:43:08;;;;;;;;;;;12.70;96.50;;;;;;5151767;27;19914;-73
2022/04/04 07:45:34;;;;;;;;;;;12.70;96.60;;;;;;5151870;27;19950;-73
2022/04/04 07:48:00;;;;;;;;;;;12.70;96.60;;;;;;5151309;27;19951;-74
2022/04/04 07:50:26;;;;;;;;;;;12.80;96.70;;;;;;5133059;27;19925;-73
2022/04/04 07:52:52;;;;;;;;;;;12.80;96.60;;;;;;5151349;27;19940;-73
2022/04/04 07:55:18;;;;;;;;;;;12.90;96.50;;;;;;5150850;27;19915;-73
2022/04/04 07:57:44;;;;;;;;;;;13.00;96.50;;;;;;5151535;27;19930;-73
2022/04/04 08:00:11;;;;;;;;;;;13.10;96.50;;;;;;5132985;27;20414;-73
2022/04/04 08:02:38;;;;;;;;;;;13.10;96.40;;;;;;5128012;27;19972;-73
2022/04/04 08:05:08;;;;;;;;;;;13.10;96.30;;;;;;5129266;27;19919;-72
2022/04/04 08:07:34;;;;;;;;;;;13.20;96.30;;;;;;5133910;27;19957;-74
2022/04/04 08:09:59;;;;;;;;;;;13.20;96.20;;;;;;5152593;27;19911;-73
2022/04/04 08:12:28;;;;;;;;;;;13.30;96.10;;;;;;5152516;27;20013;-73
2022/04/04 08:14:54;;;;;;;;;;;13.30;96.10;;;;;;5133768;27;20070;-74
2022/04/04 08:17:19;;;;;;;;;;;13.30;96.00;;;;;;5152268;27;19991;-73
2022/04/04 08:19:45;;;;;;;;;;;13.40;95.90;;;;;;5152147;27;19949;-74
2022/04/04 08:22:10;;;;;;;;;;;13.40;95.90;;;;;;5151476;27;19919;-73
2022/04/04 08:24:36;;;;;;;;;;;13.40;95.80;;;;;;5151843;27;20009;-75
2022/04/04 08:27:02;;;;;;;;;;;13.40;95.90;;;;;;5152000;27;20152;-75
2022/04/04 08:29:27;;;;;;;;;;;13.40;95.90;;;;;;5131227;27;20410;-73
2022/04/04 08:31:53;;;;;;;;;;;13.50;95.90;;;;;;5150516;27;19934;-74
2022/04/04 08:34:19;;;;;;;;;;;13.50;95.90;;;;;;5151348;27;19999;-74
2022/04/04 08:36:44;;;;;;;;;;;13.60;95.90;;;;;;5133112;27;20357;-74
2022/04/04 08:39:10;;;;;;;;;;;13.70;95.90;;;;;;5151777;27;19922;-73
2022/04/04 08:41:36;;;;;;;;;;;13.80;95.90;;;;;;5151567;27;19914;-73
2022/04/04 08:44:03;;;;;;;;;;;13.80;95.80;;;;;;5151735;27;19915;-74
2022/04/04 08:46:29;;;;;;;;;;;13.90;95.70;;;;;;5151185;27;19918;-73
2022/04/04 08:48:58;;;;;;;;;;;13.90;95.50;;;;;;5151491;27;19946;-73
2022/04/04 08:51:25;;;;;;;;;;;13.90;95.50;;;;;;5151282;27;19907;-73
2022/04/04 08:53:50;;;;;;;;;;;13.90;95.50;;;;;;5151229;27;20373;-73
2022/04/04 08:56:17;;;;;;;;;;;14.00;95.50;;;;;;5132413;27;19913;-73
2022/04/04 08:58:43;;;;;;;;;;;13.90;95.40;;;;;;5149210;27;19915;-73
2022/04/04 09:01:09;;;;;;;;;;;14.00;95.50;;;;;;5147603;27;19961;-73
2022/04/04 09:03:34;;;;;;;;;;;14.00;95.50;;;;;;5150749;27;19914;-72
2022/04/04 09:06:02;;;;;;;;;;;14.10;95.40;;;;;;5150125;27;19913;-72
2022/04/04 09:08:30;;;;;;;;;;;14.20;95.40;;;;;;5151002;27;19907;-72
2022/04/04 09:11:00;;;;;;;;;;;14.30;95.40;;;;;;5151081;27;19915;-72
2022/04/04 09:13:27;;;;;;;;;;;14.40;95.30;;;;;;5149024;27;19908;-72
2022/04/04 09:16:05;;;;;;;;;;;14.40;95.20;;;;;;5151060;27;19966;-72
2022/04/04 09:18:37;;;;;;;;;;;14.40;95.20;;;;;;5148754;27;20314;-73
2022/04/04 09:21:26;;;;;;;;;;;14.50;95.20;;;;;;5150575;27;20226;-73
2022/04/04 09:23:56;;;;;;;;;;;14.50;95.10;;;;;;5141006;27;19911;-72
2022/04/04 09:26:30;;;;;;;;;;;14.60;95.00;;;;;;5150926;27;19964;-72
2022/04/04 09:28:56;;;;;;;;;;;14.60;95.00;;;;;;5129640;27;19959;-72
2022/04/04 09:31:23;;;;;;;;;;;14.60;95.00;;;;;;5131051;27;19915;-72
2022/04/04 09:33:58;;;;;;;;;;;14.70;95.10;;;;;;5149880;27;19919;-72
2022/04/04 09:36:24;;;;;;;;;;;14.80;95.10;;;;;;5150407;27;19958;-72
2022/04/04 09:39:08;;;;;;;;;;;14.90;94.90;;;;;;5131059;27;20018;-72
2022/04/04 09:41:34;;;;;;;;;;;15.00;94.90;;;;;;5149757;27;20377;-72
2022/04/04 09:44:04;;;;;;;;;;;15.10;94.80;;;;;;5129615;27;19968;-72
2022/04/04 09:46:35;;;;;;;;;;;15.20;94.70;;;;;;5131248;27;19918;-72
2022/04/04 09:49:07;;;;;;;;;;;15.20;94.60;;;;;;5149826;27;19911;-72
2022/04/04 09:51:42;;;;;;;;;;;15.20;94.60;;;;;;5151011;27;19908;-74
2022/04/04 09:54:12;;;;;;;;;;;15.20;94.50;;;;;;5149823;27;20354;-72
2022/04/04 09:56:38;;;;;;;;;;;15.30;94.50;;;;;;5130072;27;20288;-72
2022/04/04 09:59:04;;;;;;;;;;;15.40;94.50;;;;;;5148426;27;19907;-72
2022/04/04 10:01:31;;;;;;;;;;;15.40;94.30;;;;;;5150588;27;19990;-72
2022/04/04 10:03:57;;;;;;;;;;;15.40;94.30;;;;;;5148464;27;20300;-72
2022/04/04 10:06:25;;;;;;;;;;;15.50;94.20;;;;;;5149926;27;19922;-73
2022/04/04 10:08:54;;;;;;;;;;;15.50;94.20;;;;;;5150223;27;19907;-72
2022/04/04 10:11:21;;;;;;;;;;;15.60;94.10;;;;;;5150060;27;19911;-73
2022/04/04 10:13:47;;;;;;;;;;;15.60;94.00;;;;;;5149152;27;19914;-72
2022/04/04 10:16:13;;;;;;;;;;;15.60;94.00;;;;;;5149921;27;20025;-71
2022/04/04 10:18:41;;;;;;;;;;;15.50;93.80;;;;;;5130819;27;20349;-72
2022/04/04 10:21:08;;;;;;;;;;;15.40;93.80;;;;;;5150045;27;19908;-72
2022/04/04 10:23:36;;;;;;;;;;;15.40;93.80;;;;;;5147343;27;19967;-71
2022/04/04 10:26:02;;;;;;;;;;;15.40;94.00;;;;;;5149681;27;19960;-73
2022/04/04 10:28:35;;;;;;;;;;;15.50;94.10;;;;;;5149937;27;20260;-74
2022/04/04 10:31:15;;;;;;;;;;;15.50;93.90;;;;;;5149688;27;19978;-71
2022/04/04 10:33:41;;;;;;;;;;;15.60;93.90;;;;;;5145654;27;20203;-73
2022/04/04 10:36:07;;;;;;;;;;;15.60;93.80;;;;;;5130602;27;19979;-72
2022/04/04 10:38:34;;;;;;;;;;;15.60;93.80;;;;;;5149692;27;19915;-73
2022/04/04 10:41:02;;;;;;;;;;;15.60;93.80;;;;;;5150079;27;20341;-73
2022/04/04 10:43:32;;;;;;;;;;;15.60;93.80;;;;;;5149760;27;19914;-72
2022/04/04 10:45:59;;;;;;;;;;;15.60;93.80;;;;;;5149556;27;20342;-71
2022/04/04 10:48:31;;;;;;;;;;;15.70;93.80;;;;;;5149545;27;19959;-72
2022/04/04 10:51:06;;;;;;;;;;;15.70;93.80;;;;;;5149764;27;20429;-70
2022/04/04 10:53:39;;;;;;;;;;;15.70;93.70;;;;;;5146941;27;19940;-71
2022/04/04 10:56:05;;;;;;;;;;;15.90;93.80;;;;;;5149748;27;19907;-72
2022/04/04 10:58:31;;;;;;;;;;;16.00;93.70;;;;;;5131089;27;19958;-72
2022/04/04 11:00:58;;;;;;;;;;;16.00;93.50;;;;;;5149582;27;19966;-73
2022/04/04 11:03:27;;;;;;;;;;;16.00;93.50;;;;;;5130404;27;19919;-73
2022/04/04 11:08:57;;;;;;;;;;;16.20;93.50;;;;;;5149388;27;19940;-71
2022/04/04 11:11:39;;;;;;;;;;;16.20;93.40;;;;;;5147235;27;19968;-71
2022/04/04 11:14:05;;;;;;;;;;;16.20;93.20;;;;;;5129159;28;19907;-72
2022/04/04 11:16:49;;;;;;;;;;;16.10;93.20;;;;;;5148086;27;20439;-72
2022/04/04 11:19:18;;;;;;;;;;;16.00;93.10;;;;;;5149851;27;20009;-72
2022/04/04 11:21:44;;;;;;;;;;;15.90;93.10;;;;;;5149976;27;20020;-73
2022/04/04 11:24:12;;;;;;;;;;;15.80;93.20;;;;;;5149727;27;19946;-73
2022/04/04 11:26:38;;;;;;;;;;;15.80;93.20;;;;;;5149658;27;19921;-73
2022/04/04 11:29:19;;;;;;;;;;;15.70;93.20;;;;;;5149589;27;19913;-73
2022/04/04 11:31:48;;;;;;;;;;;15.70;93.20;;;;;;5134530;27;19929;-73
2022/04/04 11:34:14;;;;;;;;;;;15.60;93.30;;;;;;5153950;27;19907;-74
2022/04/04 11:36:40;;;;;;;;;;;15.70;93.40;;;;;;5153474;27;19952;-74
2022/04/04 11:39:08;;;;;;;;;;;15.70;93.40;;;;;;5153241;27;19960;-74
2022/04/04 11:41:36;;;;;;;;;;;15.90;93.30;;;;;;5153653;27;19951;-74
2022/04/04 11:44:05;;;;;;;;;;;16.00;93.40;;;;;;5152993;27;19907;-72
2022/04/04 11:46:32;;;;;;;;;;;16.10;93.40;;;;;;5153143;27;19911;-73
2022/04/04 11:48:59;;;;;;;;;;;16.30;93.30;;;;;;5153279;27;19915;-73
2022/04/04 11:51:25;;;;;;;;;;;16.40;93.10;;;;;;5132995;27;19955;-73
2022/04/04 11:54:00;;;;;;;;;;;16.30;92.90;;;;;;5152540;27;20286;-73
2022/04/04 11:56:26;;;;;;;;;;;16.30;92.90;;;;;;5132105;27;19908;-74
2022/04/04 11:58:54;;;;;;;;;;;16.30;92.80;;;;;;5131984;27;20051;-73
2022/04/04 12:01:20;;;;;;;;;;;16.20;92.80;;;;;;5131757;27;19907;-74
2022/04/04 12:03:50;;;;;;;;;;;16.30;93.00;;;;;;5131776;27;19971;-74
2022/04/04 12:06:16;;;;;;;;;;;16.40;93.00;;;;;;5131634;27;19912;-74
2022/04/04 12:08:45;;;;;;;;;;;16.40;92.80;;;;;;5152498;27;19917;-75
2022/04/04 12:11:11;;;;;;;;;;;16.40;92.70;;;;;;5153184;27;19935;-74
2022/04/04 12:13:52;;;;;;;;;;;16.40;92.70;;;;;;5152437;27;19911;-74
2022/04/04 12:16:17;;;;;;;;;;;16.70;93.00;;;;;;5152747;27;20393;-75
2022/04/04 12:18:51;;;;;;;;;;;17.00;92.80;;;;;;5133953;27;20006;-73
2022/04/04 12:21:18;;;;;;;;;;;17.20;92.30;;;;;;5133941;27;19918;-73
2022/04/04 12:26:28;;;;;;;;;;;17.10;91.70;;;;;;5149749;27;20481;-73
2022/04/04 12:28:54;;;;;;;;;;;16.90;91.60;;;;;;5152092;27;20005;-73
2022/04/04 12:31:23;;;;;;;;;;;16.70;91.50;;;;;;5150611;27;20094;-75
2022/04/04 12:34:02;;;;;;;;;;;16.60;91.50;;;;;;5126008;27;20023;-73
2022/04/04 12:36:32;;;;;;;;;;;16.50;91.50;;;;;;5148786;27;19907;-73
2022/04/04 12:38:58;;;;;;;;;;;16.30;91.40;;;;;;5152065;27;19923;-74
2022/04/04 12:41:25;;;;;;;;;;;16.20;91.50;;;;;;5151711;27;19922;-74
2022/04/04 12:44:00;;;;;;;;;;;16.10;91.60;;;;;;5151990;27;19918;-73
2022/04/04 12:46:27;;;;;;;;;;;16.00;91.90;;;;;;5151873;27;19961;-73
2022/04/04 12:48:54;;;;;;;;;;;16.00;91.70;;;;;;5151447;27;19918;-74
2022/04/04 12:51:26;;;;;;;;;;;16.00;91.70;;;;;;5151871;27;20235;-74
2022/04/04 12:53:53;;;;;;;;;;;16.10;91.90;;;;;;5151605;27;20341;-75
2022/04/04 12:56:19;;;;;;;;;;;16.40;92.20;;;;;;5150774;27;19915;-72
2022/04/04 12:59:02;;;;;;;;;;;16.80;91.80;;;;;;5151369;27;19918;-72
2022/04/04 13:01:28;;;;;;;;;;;16.90;91.30;;;;;;5132215;27;20460;-71
2022/04/04 13:03:53;;;;;;;;;;;17.00;91.00;;;;;;5151437;27;19993;-73
2022/04/04 13:06:19;;;;;;;;;;;16.90;90.80;;;;;;5150549;27;19915;-73
2022/04/04 13:08:58;;;;;;;;;;;16.80;90.60;;;;;;5151340;27;20378;-73
2022/04/04 13:11:24;;;;;;;;;;;16.60;90.50;;;;;;5128827;27;19908;-72
2022/04/04 13:14:06;;;;;;;;;;;16.50;90.90;;;;;;5150750;27;19911;-72
2022/04/04 13:16:40;;;;;;;;;;;16.50;90.90;;;;;;5148363;27;19918;-73
2022/04/04 13:19:09;;;;;;;;;;;16.50;90.80;;;;;;5151095;27;19918;-72
2022/04/04 13:21:35;;;;;;;;;;;16.50;90.80;;;;;;5129926;27;20334;-72
2022/04/04 13:24:02;;;;;;;;;;;16.60;90.50;;;;;;5151252;27;19914;-73
2022/04/04 13:26:28;;;;;;;;;;;16.60;90.60;;;;;;5131910;27;20337;-74
2022/04/04 13:28:53;;;;;;;;;;;16.80;90.80;;;;;;5150407;27;19950;-73
2022/04/04 13:31:19;;;;;;;;;;;17.00;90.60;;;;;;5150247;27;19950;-73
2022/04/04 13:33:46;;;;;;;;;;;17.20;90.40;;;;;;5150863;27;19915;-73
2022/04/04 13:36:12;;;;;;;;;;;17.10;90.00;;;;;;5148002;27;19955;-75
2022/04/04 13:38:38;;;;;;;;;;;17.00;89.90;;;;;;5150818;27;19911;-71
2022/04/04 13:41:05;;;;;;;;;;;16.90;90.00;;;;;;5150010;27;20128;-73
2022/04/04 13:43:31;;;;;;;;;;;17.00;90.20;;;;;;5150662;27;20001;-73
2022/04/04 13:45:57;;;;;;;;;;;17.20;90.20;;;;;;5150216;27;19959;-73
2022/04/04 13:48:23;;;;;;;;;;;17.50;90.10;;;;;;5150267;27;19950;-73
2022/04/04 13:50:49;;;;;;;;;;;17.60;89.30;;;;;;5150251;27;19913;-72
2022/04/04 13:53:15;;;;;;;;;;;17.60;89.40;;;;;;5149798;27;19912;-74
2022/04/04 13:55:40;;;;;;;;;;;17.50;89.00;;;;;;5149896;27;19932;-72
2022/04/04 13:58:06;;;;;;;;;;;17.30;88.80;;;;;;5148206;27;20384;-73
2022/04/04 14:00:35;;;;;;;;;;;17.20;89.00;;;;;;5145474;27;19922;-73
2022/04/04 14:03:00;;;;;;;;;;;17.10;89.00;;;;;;5147754;27;19907;-71
2022/04/04 14:05:28;;;;;;;;;;;16.90;89.20;;;;;;5146884;27;20013;-71
2022/04/04 14:07:55;;;;;;;;;;;16.90;89.40;;;;;;5145766;27;20264;-72
2022/04/04 14:10:21;;;;;;;;;;;16.90;89.30;;;;;;5147925;27;19911;-72
2022/04/04 14:12:46;;;;;;;;;;;16.80;89.10;;;;;;5148274;27;19915;-72
2022/04/04 14:15:17;;;;;;;;;;;16.80;89.10;;;;;;5128984;27;19923;-71
2022/04/04 14:17:42;;;;;;;;;;;16.80;89.20;;;;;;5130283;27;19938;-72
2022/04/04 14:20:08;;;;;;;;;;;16.80;89.20;;;;;;5148199;27;19911;-72
2022/04/04 14:22:34;;;;;;;;;;;16.80;88.60;;;;;;5148253;27;20475;-72